Time;durP1;ratioP1;P1;durP2;ratioP2;P2;SDS_P1;SDS_P2;PMS_P1;PMS_P2;Temp;Humidity;BMP_temperature;BMP_pressure;BME280_temperature;BME280_humidity;BME280_pressure;Samples;Min_cycle;Max_cycle;Signal;HPM_P1;HPM_P2
2023/05/17 04:02:35;;;;;;;7.85;2.50;;;9.10;99.90;;;;;;4954112;23;20051;-71
2023/05/17 04:05:00;;;;;;;5.05;2.42;;;9.10;99.90;;;;;;4937430;29;20024;-70
2023/05/17 04:07:26;;;;;;;10.15;2.20;;;9.10;99.90;;;;;;4938738;29;20095;-70
2023/05/17 04:09:52;;;;;;;10.13;2.33;;;9.10;99.90;;;;;;4941397;29;20060;-71
2023/05/17 04:12:18;;;;;;;4.75;2.40;;;9.10;99.90;;;;;;4939091;29;20035;-71
2023/05/17 04:14:43;;;;;;;7.93;2.50;;;9.10;99.90;;;;;;4940252;29;20485;-72
2023/05/17 04:17:09;;;;;;;5.73;2.10;;;9.10;99.90;;;;;;4940130;29;20483;-70
2023/05/17 04:19:34;;;;;;;8.83;2.77;;;9.10;99.90;;;;;;4946760;29;20028;-70
2023/05/17 04:22:00;;;;;;;5.30;1.87;;;9.20;99.90;;;;;;4948256;29;20038;-71
2023/05/17 04:24:25;;;;;;;8.87;2.60;;;9.10;99.90;;;;;;4943100;29;20020;-69
2023/05/17 04:26:51;;;;;;;6.47;2.30;;;9.10;99.90;;;;;;4939973;29;20020;-70
2023/05/17 04:29:16;;;;;;;8.20;2.80;;;9.10;99.90;;;;;;4941417;29;20088;-71
2023/05/17 04:31:42;;;;;;;9.17;2.77;;;9.10;99.90;;;;;;4942625;29;20032;-70
2023/05/17 04:34:08;;;;;;;8.17;2.30;;;9.10;99.90;;;;;;4942797;29;20028;-71
2023/05/17 04:36:33;;;;;;;8.20;2.53;;;9.10;99.90;;;;;;4942193;29;20024;-68
2023/05/17 04:38:59;;;;;;;7.60;2.93;;;9.10;99.90;;;;;;4944445;29;20160;-70
2023/05/17 04:41:25;;;;;;;8.27;2.73;;;9.10;99.90;;;;;;4949398;29;20496;-70
2023/05/17 04:43:50;;;;;;;6.93;2.20;;;9.10;99.90;;;;;;4945795;29;20114;-73
2023/05/17 04:46:16;;;;;;;8.27;2.50;;;9.10;99.90;;;;;;4932025;29;20024;-73
2023/05/17 04:48:41;;;;;;;11.20;2.83;;;9.20;99.90;;;;;;4922283;29;20047;-72
2023/05/17 04:51:07;;;;;;;5.80;2.43;;;9.30;99.90;;;;;;4940317;29;20039;-74
2023/05/17 04:53:32;;;;;;;5.80;2.63;;;9.30;99.90;;;;;;4940090;29;20061;-74
2023/05/17 04:55:58;;;;;;;8.37;2.50;;;9.40;99.90;;;;;;4939974;29;20028;-74
2023/05/17 04:58:24;;;;;;;5.90;2.15;;;9.40;99.90;;;;;;4939252;29;20031;-73
2023/05/17 05:00:50;;;;;;;6.63;2.67;;;9.40;99.90;;;;;;4940671;29;20141;-71
2023/05/17 05:03:16;;;;;;;7.97;2.85;;;9.50;99.90;;;;;;4939658;29;20780;-72
2023/05/17 05:05:42;;;;;;;8.55;2.50;;;9.60;99.90;;;;;;4937011;29;20039;-72
2023/05/17 05:08:08;;;;;;;5.05;2.30;;;9.70;99.90;;;;;;4936650;29;20067;-74
2023/05/17 05:10:34;;;;;;;10.30;2.80;;;9.70;99.90;;;;;;4938111;29;20023;-72
2023/05/17 05:12:59;;;;;;;9.57;2.97;;;9.70;99.90;;;;;;4937589;29;20035;-72
2023/05/17 05:15:25;;;;;;;8.20;2.80;;;9.80;99.90;;;;;;4936682;29;20267;-71
2023/05/17 05:17:51;;;;;;;8.47;2.73;;;9.90;99.90;;;;;;4937371;29;20024;-72
2023/05/17 05:20:16;;;;;;;8.10;2.80;;;10.00;99.90;;;;;;4937417;29;20396;-72
2023/05/17 05:22:42;;;;;;;8.87;2.67;;;9.90;99.90;;;;;;4927321;29;20038;-72
2023/05/17 05:25:08;;;;;;;9.27;2.80;;;9.90;99.90;;;;;;4920869;29;20107;-70
2023/05/17 05:27:34;;;;;;;11.45;4.28;;;9.90;99.90;;;;;;4926957;29;20037;-72
2023/05/17 05:30:00;;;;;;;4.75;2.28;;;10.00;99.90;;;;;;4932130;29;20441;-72
2023/05/17 05:32:26;;;;;;;7.15;2.75;;;10.10;99.90;;;;;;4938085;29;20028;-72
2023/05/17 05:34:51;;;;;;;8.07;2.90;;;10.10;99.90;;;;;;4939288;29;20503;-72
2023/05/17 05:37:18;;;;;;;7.17;3.03;;;10.20;99.90;;;;;;4938161;29;20035;-71
2023/05/17 05:39:44;;;;;;;7.72;3.10;;;10.40;99.90;;;;;;4939834;29;20023;-72
2023/05/17 05:42:10;;;;;;;7.75;2.80;;;10.50;99.90;;;;;;4937995;29;20171;-72
2023/05/17 05:44:36;;;;;;;8.32;2.80;;;10.60;99.90;;;;;;4936435;29;20059;-72
2023/05/17 05:47:01;;;;;;;8.27;2.70;;;10.70;99.90;;;;;;4936565;29;20036;-72
2023/05/17 05:49:27;;;;;;;14.83;3.33;;;10.70;99.90;;;;;;4936393;29;20035;-72
2023/05/17 05:51:52;;;;;;;9.27;2.93;;;10.90;99.90;;;;;;4937187;29;20076;-73
2023/05/17 05:54:18;;;;;;;5.97;2.70;;;11.00;99.90;;;;;;4937031;29;20102;-72
2023/05/17 05:56:44;;;;;;;12.52;7.10;;;11.10;99.90;;;;;;4938072;29;20023;-72
2023/05/17 05:59:10;;;;;;;7.07;3.30;;;11.20;99.90;;;;;;4935742;29;20125;-72
2023/05/17 06:01:37;;;;;;;8.43;3.42;;;11.20;99.90;;;;;;4935638;29;20556;-72
2023/05/17 06:04:02;;;;;;;8.43;3.40;;;11.30;99.90;;;;;;4937346;29;20107;-71
2023/05/17 06:06:28;;;;;;;9.20;3.22;;;11.40;99.90;;;;;;4920504;29;20264;-71
2023/05/17 06:08:54;;;;;;;7.07;2.83;;;11.40;99.90;;;;;;4936420;29;20067;-71
2023/05/17 06:11:20;;;;;;;;;;;11.40;99.90;;;;;;4935698;29;20027;-71
2023/05/17 06:13:46;;;;;;;8.15;3.60;;;11.50;99.90;;;;;;4936739;29;19907;-71
2023/05/17 06:16:12;;;;;;;5.18;2.97;;;11.50;99.90;;;;;;4936694;29;20477;-69
2023/05/17 06:18:37;;;;;;;7.68;3.33;;;11.70;99.90;;;;;;4936602;29;20032;-70
2023/05/17 06:21:03;;;;;;;8.13;3.27;;;11.70;99.90;;;;;;4936630;29;20426;-70
2023/05/17 06:23:28;;;;;;;8.83;3.20;;;11.60;99.90;;;;;;4935476;29;20540;-70
2023/05/17 06:25:54;;;;;;;8.43;3.40;;;11.60;99.90;;;;;;4935403;29;20046;-70
2023/05/17 06:28:20;;;;;;;7.47;3.30;;;11.70;99.90;;;;;;4939795;29;20027;-69
2023/05/17 06:30:45;;;;;;;6.63;3.13;;;11.90;99.90;;;;;;4936738;29;20035;-69
2023/05/17 06:33:11;;;;;;;6.85;3.20;;;12.00;99.90;;;;;;4935782;29;20469;-69
2023/05/17 06:35:37;;;;;;;7.60;3.50;;;12.00;99.90;;;;;;4935314;29;20032;-72
2023/05/17 06:38:03;;;;;;;8.90;2.95;;;12.10;99.90;;;;;;4936908;29;20284;-72
2023/05/17 06:40:29;;;;;;;8.13;3.30;;;12.10;99.90;;;;;;4935477;29;20032;-72
2023/05/17 06:42:54;;;;;;;8.55;3.47;;;12.00;99.90;;;;;;4935486;29;20057;-71
2023/05/17 06:45:20;;;;;;;12.30;3.20;;;12.00;99.90;;;;;;4935746;29;20038;-71
2023/05/17 06:47:46;;;;;;;9.02;3.35;;;11.90;99.90;;;;;;4936834;29;20103;-72
2023/05/17 06:50:12;;;;;;;9.73;3.58;;;11.90;99.90;;;;;;4935940;29;20102;-71
2023/05/17 06:52:38;;;;;;;10.88;2.92;;;12.00;99.90;;;;;;4936210;29;20389;-70
2023/05/17 06:55:04;;;;;;;9.95;3.47;;;12.20;99.90;;;;;;4936244;29;20070;-70
2023/05/17 06:57:30;;;;;;;;;;;12.30;99.90;;;;;;4935341;29;20081;-71
2023/05/17 06:59:55;;;;;;;9.73;3.13;;;12.60;99.90;;;;;;4935065;29;19914;-71
2023/05/17 07:02:21;;;;;;;8.10;2.70;;;12.80;99.90;;;;;;4936271;29;20036;-71
2023/05/17 07:04:47;;;;;;;6.93;2.57;;;12.90;99.90;;;;;;4935003;29;20063;-72
2023/05/17 07:07:12;;;;;;;7.20;2.53;;;13.00;99.90;;;;;;4936304;29;20397;-71
2023/05/17 07:09:38;;;;;;;8.30;2.78;;;13.00;99.90;;;;;;4936877;29;20040;-71
2023/05/17 07:12:05;;;;;;;10.57;2.88;;;13.00;99.90;;;;;;4935189;29;20503;-71
2023/05/17 07:14:30;;;;;;;7.85;2.75;;;13.00;99.90;;;;;;4938426;29;20047;-71
2023/05/17 07:16:56;;;;;;;6.15;2.45;;;13.00;99.90;;;;;;4936666;29;20024;-71
2023/05/17 07:19:22;;;;;;;6.50;2.45;;;12.90;99.90;;;;;;4936707;29;20146;-72
2023/05/17 07:21:48;;;;;;;6.50;2.50;;;12.90;99.90;;;;;;4936145;29;20071;-71
2023/05/17 07:24:13;;;;;;;7.13;3.27;;;12.90;99.90;;;;;;4936292;29;20433;-72
2023/05/17 07:26:39;;;;;;;13.07;3.00;;;13.00;99.90;;;;;;4938020;29;20366;-72
2023/05/17 07:29:04;;;;;;;7.57;2.77;;;13.00;99.90;;;;;;4936824;29;20803;-72
2023/05/17 07:31:30;;;;;;;7.63;3.10;;;12.90;99.90;;;;;;4936170;29;20028;-72
2023/05/17 07:33:56;;;;;;;6.83;2.80;;;12.70;99.90;;;;;;4935384;29;20030;-72
2023/05/17 07:36:21;;;;;;;8.27;2.80;;;12.50;99.90;;;;;;4938572;29;20027;-72
2023/05/17 07:38:47;;;;;;;9.30;3.10;;;12.60;99.90;;;;;;4939498;29;20028;-72
2023/05/17 07:41:15;;;;;;;10.68;2.90;;;12.80;99.90;;;;;;4939921;29;20397;-72
2023/05/17 07:43:41;;;;;;;5.57;2.90;;;13.00;99.90;;;;;;4938834;29;20038;-72
2023/05/17 07:46:06;;;;;;;9.00;2.83;;;13.30;99.90;;;;;;4940214;29;20032;-72
2023/05/17 07:48:32;;;;;;;11.73;3.20;;;13.40;99.90;;;;;;4940060;29;20027;-72
2023/05/17 07:50:58;;;;;;;7.90;2.63;;;13.30;99.90;;;;;;4938627;29;20493;-72
2023/05/17 07:53:23;;;;;;;9.67;3.37;;;13.20;99.90;;;;;;4940464;29;20259;-72
2023/05/17 07:55:49;;;;;;;8.77;3.17;;;13.30;99.90;;;;;;4941545;29;20032;-72
2023/05/17 07:58:14;;;;;;;10.27;3.30;;;13.60;99.60;;;;;;4938698;29;20028;-72
2023/05/17 08:00:41;;;;;;;11.33;3.00;;;14.10;99.70;;;;;;4940245;29;20083;-71
2023/05/17 08:03:07;;;;;;;8.25;3.60;;;15.10;98.00;;;;;;4939359;29;20110;-72
2023/05/17 08:05:32;;;;;;;12.07;3.83;;;16.10;96.70;;;;;;4938896;29;20060;-73
2023/05/17 08:07:59;;;;;;;6.13;3.20;;;18.00;94.00;;;;;;4939739;29;20036;-72
2023/05/17 08:10:25;;;;;;;;;;;19.20;91.80;;;;;;4940127;29;20372;-73
2023/05/17 08:12:52;;;;;;;9.02;4.07;;;20.60;87.80;;;;;;4939802;29;20360;-73
2023/05/17 08:15:18;;;;;;;8.95;3.25;;;22.10;82.60;;;;;;4937988;29;20036;-73
2023/05/17 08:17:43;;;;;;;5.78;3.08;;;23.20;79.10;;;;;;4937860;29;20056;-73
2023/05/17 08:20:09;;;;;;;;;;;24.20;74.20;;;;;;4939695;29;20066;-74
2023/05/17 08:22:35;;;;;;;6.10;2.85;;;24.40;71.40;;;;;;4943055;29;19906;-73
2023/05/17 08:25:01;;;;;;;4.80;2.90;;;23.30;71.90;;;;;;4940973;29;20028;-74
2023/05/17 08:27:29;;;;;;;;;;;22.80;72.20;;;;;;4939475;29;20370;-73
2023/05/17 08:29:56;;;;;;;6.80;3.13;;;22.60;73.10;;;;;;4938612;29;19934;-73
2023/05/17 08:32:22;;;;;;;7.00;2.90;;;22.90;71.80;;;;;;4937073;29;20037;-74
2023/05/17 08:34:48;;;;;;;;;;;23.60;69.30;;;;;;4939660;29;20536;-74
2023/05/17 08:37:13;;;;;;;6.00;3.40;;;23.50;68.30;;;;;;4939157;29;19910;-73
2023/05/17 08:39:39;;;;;;;;;;;22.90;69.50;;;;;;4938803;29;20370;-74
2023/05/17 08:42:07;;;;;;;7.10;3.30;;;21.60;71.00;;;;;;4941274;29;19914;-74
2023/05/17 08:44:33;;;;;;;11.05;3.92;;;21.20;72.70;;;;;;4939957;29;20481;-74
2023/05/17 08:46:59;;;;;;;;;;;22.20;71.10;;;;;;4937242;29;20023;-73
2023/05/17 08:49:27;;;;;;;9.70;3.40;;;21.80;69.60;;;;;;4938141;29;20387;-73
2023/05/17 08:51:54;;;;;;;9.48;3.45;;;20.60;72.10;;;;;;4939490;29;20028;-73
2023/05/17 08:54:19;;;;;;;6.25;3.33;;;19.40;74.30;;;;;;4940002;29;20031;-73
2023/05/17 08:56:48;;;;;;;7.50;3.40;;;18.40;76.50;;;;;;4937684;29;20024;-73
2023/05/17 08:59:13;;;;;;;9.43;3.63;;;17.70;79.30;;;;;;4939265;29;20400;-73
2023/05/17 09:01:41;;;;;;;9.45;3.78;;;17.00;81.10;;;;;;4941660;29;20086;-73
2023/05/17 09:04:11;;;;;;;7.57;3.42;;;16.40;83.60;;;;;;4941474;29;20027;-73
2023/05/17 09:06:37;;;;;;;10.32;3.80;;;16.20;84.50;;;;;;4938069;29;20083;-73
2023/05/17 09:09:06;;;;;;;8.82;3.60;;;16.90;84.40;;;;;;4936195;29;20027;-71
2023/05/17 09:11:32;;;;;;;4.85;2.95;;;19.30;79.10;;;;;;4937856;29;20035;-72
2023/05/17 09:14:02;;;;;;;;;;;20.90;74.90;;;;;;4938881;29;20082;-72
2023/05/17 09:16:29;;;;;;;8.15;3.05;;;20.40;73.90;;;;;;4944254;29;19907;-73
2023/05/17 09:18:56;;;;;;;6.22;3.10;;;20.10;75.60;;;;;;4945184;29;20087;-73
2023/05/17 09:21:23;;;;;;;9.48;3.60;;;20.50;73.90;;;;;;4942142;29;20034;-73
2023/05/17 09:23:50;;;;;;;5.63;3.45;;;19.70;74.40;;;;;;4939514;29;20032;-74
2023/05/17 09:26:17;;;;;;;8.38;3.65;;;18.50;77.00;;;;;;4941872;29;20027;-74
2023/05/17 09:28:43;;;;;;;9.68;3.80;;;17.60;78.90;;;;;;4942116;29;20028;-72
2023/05/17 09:31:12;;;;;;;8.10;3.45;;;17.00;81.40;;;;;;4941677;29;20110;-72
2023/05/17 09:33:48;;;;;;;9.27;3.30;;;16.50;82.70;;;;;;4936149;29;20032;-73
2023/05/17 09:36:21;;;;;;;6.50;3.25;;;17.10;81.70;;;;;;4937084;29;20024;-74
2023/05/17 09:38:58;;;;;;;7.03;2.97;;;19.80;77.50;;;;;;4936870;29;20038;-73
2023/05/17 09:41:29;;;;;;;8.77;3.83;;;21.60;71.40;;;;;;4938661;29;20023;-72
2023/05/17 09:44:08;;;;;;;7.40;3.33;;;21.00;71.90;;;;;;4939663;29;20023;-72
2023/05/17 09:46:34;;;;;;;7.32;3.50;;;20.30;73.40;;;;;;4939410;29;20453;-72
2023/05/17 09:49:00;;;;;;;;;;;19.20;75.80;;;;;;4937622;29;20055;-72
2023/05/17 09:51:38;;;;;;;7.07;3.67;;;18.20;78.20;;;;;;4937178;29;20427;-72
2023/05/17 09:54:06;;;;;;;8.45;3.92;;;17.20;80.70;;;;;;4936838;29;20031;-72
2023/05/17 09:56:32;;;;;;;6.07;3.30;;;16.70;82.90;;;;;;4936726;29;20034;-73
2023/05/17 09:59:00;;;;;;;5.70;2.70;;;16.50;83.90;;;;;;4936271;29;20527;-72
2023/05/17 10:01:28;;;;;;;8.60;2.95;;;16.50;83.20;;;;;;4936902;29;20040;-73
2023/05/17 10:03:55;;;;;;;6.93;3.22;;;16.40;83.60;;;;;;4936994;29;20107;-73
2023/05/17 10:06:22;;;;;;;4.50;2.63;;;16.20;83.90;;;;;;4936756;29;20031;-73
2023/05/17 10:08:54;;;;;;;7.55;3.28;;;16.00;84.50;;;;;;4937111;29;20481;-73
2023/05/17 10:11:25;;;;;;;7.43;2.50;;;15.70;86.20;;;;;;4938908;29;20038;-73
2023/05/17 10:14:25;;;;;;;8.77;3.20;;;15.60;87.10;;;;;;4944380;29;20358;-73
2023/05/17 10:16:53;;;;;;;11.48;3.20;;;15.50;87.50;;;;;;4955555;23;20044;-75
2023/05/17 10:19:20;;;;;;;10.75;3.00;;;15.40;87.60;;;;;;4935942;29;20032;-74
2023/05/17 10:21:47;;;;;;;5.30;2.53;;;15.30;87.40;;;;;;4936158;29;20023;-76
2023/05/17 10:24:15;;;;;;;6.13;2.88;;;15.40;87.40;;;;;;4937211;29;20098;-76
2023/05/17 10:26:41;;;;;;;8.68;3.15;;;15.50;88.10;;;;;;4935851;29;20051;-76
2023/05/17 10:29:07;;;;;;;6.80;2.95;;;15.70;88.00;;;;;;4936586;29;20432;-76
2023/05/17 10:31:33;;;;;;;7.63;3.40;;;15.70;88.90;;;;;;4936630;29;20031;-76
2023/05/17 10:34:04;;;;;;;8.57;4.07;;;15.70;88.40;;;;;;4936066;29;20032;-76
2023/05/17 10:36:30;;;;;;;6.95;3.00;;;15.60;88.70;;;;;;4937019;29;20039;-76
2023/05/17 10:38:58;;;;;;;8.57;3.60;;;15.40;88.20;;;;;;4936778;29;20027;-75
2023/05/17 10:41:27;;;;;;;7.95;3.03;;;15.30;87.90;;;;;;4937346;29;20107;-75
2023/05/17 10:43:54;;;;;;;7.35;3.20;;;15.30;89.10;;;;;;4935584;29;20479;-74
2023/05/17 10:46:22;;;;;;;8.88;3.17;;;15.30;88.90;;;;;;4935256;29;20028;-75
2023/05/17 10:48:52;;;;;;;8.60;3.45;;;15.40;89.00;;;;;;4935922;29;20031;-75
2023/05/17 10:51:23;;;;;;;10.38;3.45;;;15.40;88.80;;;;;;4937085;29;20034;-76
2023/05/17 10:54:17;;;;;;;8.13;3.00;;;15.40;88.80;;;;;;4936621;29;20128;-76
2023/05/17 10:56:48;;;;;;;8.02;2.90;;;15.30;89.30;;;;;;4931895;29;20492;-76
2023/05/17 10:59:25;;;;;;;7.22;2.85;;;15.30;88.90;;;;;;4936283;29;20556;-76
2023/05/17 11:02:02;;;;;;;7.50;3.20;;;15.20;89.60;;;;;;4935200;29;20081;-77
2023/05/17 11:04:31;;;;;;;7.40;2.90;;;15.20;89.10;;;;;;4935484;29;20079;-75
2023/05/17 11:07:22;;;;;;;5.40;2.80;;;15.20;89.40;;;;;;4936289;29;20027;-76
2023/05/17 11:10:05;;;;;;;11.90;3.65;;;15.20;89.70;;;;;;4935933;29;20024;-76
2023/05/17 11:12:35;;;;;;;7.20;3.67;;;15.20;89.80;;;;;;4943940;29;20024;-76
2023/05/17 11:15:07;;;;;;;5.72;2.50;;;15.20;89.60;;;;;;4948094;29;20035;-78
2023/05/17 11:17:52;;;;;;;12.35;2.90;;;15.30;87.50;;;;;;4944318;29;20028;-76
2023/05/17 11:20:24;;;;;;;4.70;2.50;;;15.40;86.70;;;;;;4939007;29;20023;-76
2023/05/17 11:22:54;;;;;;;8.57;2.85;;;15.40;87.20;;;;;;4939412;29;20027;-76
2023/05/17 11:25:20;;;;;;;7.13;2.95;;;15.60;87.20;;;;;;4940190;29;20023;-76
2023/05/17 11:27:48;;;;;;;4.93;2.30;;;15.80;86.80;;;;;;4939311;29;20501;-76
2023/05/17 11:30:28;;;;;;;5.10;2.67;;;15.90;86.60;;;;;;4940266;29;20397;-76
2023/05/17 11:33:01;;;;;;;6.82;2.45;;;15.90;85.10;;;;;;4940270;29;20445;-76
2023/05/17 11:35:31;;;;;;;5.25;2.72;;;15.80;85.50;;;;;;4938593;29;20127;-75
2023/05/17 11:38:19;;;;;;;4.68;2.30;;;15.70;83.30;;;;;;4939463;29;20024;-75
2023/05/17 11:41:17;;;;;;;5.38;2.33;;;15.60;84.70;;;;;;4939634;29;20484;-76
2023/05/17 11:43:48;;;;;;;7.88;2.80;;;15.30;84.50;;;;;;4945180;29;20028;-78
2023/05/17 11:46:22;;;;;;;7.30;2.45;;;15.20;85.90;;;;;;4941032;29;20059;-78
2023/05/17 11:48:51;;;;;;;5.18;2.20;;;15.30;85.70;;;;;;4943086;29;20515;-80
2023/05/17 11:51:18;;;;;;;5.78;2.40;;;15.50;85.90;;;;;;4949657;29;20062;-79
2023/05/17 11:53:46;;;;;;;7.05;2.67;;;15.60;84.70;;;;;;4952014;29;20059;-79
2023/05/17 11:56:12;;;;;;;6.10;2.80;;;15.90;83.70;;;;;;4938667;29;20036;-79
2023/05/17 11:58:37;;;;;;;5.40;2.97;;;15.90;82.10;;;;;;4942998;29;20051;-80
2023/05/17 12:01:03;;;;;;;7.03;2.55;;;15.90;83.00;;;;;;4942966;29;20035;-77
2023/05/17 12:03:31;;;;;;;6.28;2.45;;;16.00;83.20;;;;;;4944760;29;20468;-80
2023/05/17 12:06:04;;;;;;;4.75;2.60;;;15.90;83.60;;;;;;4944807;29;20039;-80
2023/05/17 12:08:32;;;;;;;5.68;2.70;;;16.10;82.90;;;;;;4928311;29;20027;-76
2023/05/17 12:10:58;;;;;;;4.20;2.40;;;16.30;81.70;;;;;;4932229;29;20484;-78
2023/05/17 12:13:28;;;;;;;3.92;2.42;;;16.60;80.70;;;;;;4944969;29;20048;-79
2023/05/17 12:15:56;;;;;;;5.30;2.63;;;16.50;79.50;;;;;;4952204;29;20043;-78
2023/05/17 12:18:22;;;;;;;3.55;1.85;;;16.60;79.60;;;;;;4946176;29;20396;-78
2023/05/17 12:20:55;;;;;;;4.85;2.72;;;16.50;79.00;;;;;;4948961;29;20039;-78
2023/05/17 12:23:29;;;;;;;5.47;2.60;;;16.60;79.00;;;;;;4940738;29;20028;-77
2023/05/17 12:26:25;;;;;;;6.80;3.17;;;16.70;79.90;;;;;;4949649;29;20055;-77
2023/05/17 12:28:55;;;;;;;5.90;2.55;;;16.80;79.70;;;;;;4910617;29;20051;-76
2023/05/17 12:31:33;;;;;;;6.82;3.17;;;16.80;78.90;;;;;;4919475;29;20032;-76
2023/05/17 12:34:01;;;;;;;6.70;3.00;;;16.80;80.30;;;;;;4926891;29;20040;-78
2023/05/17 12:36:27;;;;;;;7.22;3.33;;;16.90;79.80;;;;;;4922199;29;20199;-77
2023/05/17 12:38:54;;;;;;;6.10;2.45;;;17.10;79.80;;;;;;4909115;29;20024;-71
2023/05/17 12:41:21;;;;;;;7.15;2.70;;;17.20;79.00;;;;;;4918784;29;20028;-72
2023/05/17 12:43:48;;;;;;;4.75;2.33;;;17.20;78.00;;;;;;4920170;29;20028;-75
2023/05/17 12:46:20;;;;;;;4.50;2.38;;;16.80;78.40;;;;;;4901285;29;20044;-71
2023/05/17 12:48:47;;;;;;;7.05;2.80;;;16.70;79.00;;;;;;4917353;29;20030;-71
2023/05/17 12:51:21;;;;;;;5.75;2.50;;;16.70;78.80;;;;;;4899232;29;20032;-71
2023/05/17 12:53:51;;;;;;;6.75;3.17;;;16.90;77.70;;;;;;4915206;29;20390;-72
2023/05/17 12:56:22;;;;;;;4.47;2.05;;;17.20;77.10;;;;;;4916968;29;20036;-71
2023/05/17 12:59:04;;;;;;;7.90;2.80;;;17.50;77.70;;;;;;4916622;29;20068;-72
2023/05/17 13:01:38;;;;;;;8.20;2.88;;;17.60;76.90;;;;;;4901180;29;20020;-71
2023/05/17 13:04:03;;;;;;;11.18;2.78;;;17.70;75.90;;;;;;4917284;29;20031;-71
2023/05/17 13:06:50;;;;;;;5.88;2.42;;;17.70;75.50;;;;;;4938535;29;20106;-72
2023/05/17 13:09:18;;;;;;;10.95;3.38;;;17.70;75.90;;;;;;4936735;29;20032;-72
2023/05/17 13:11:53;;;;;;;7.47;3.10;;;17.50;75.50;;;;;;4936429;29;20034;-71
2023/05/17 13:14:41;;;;;;;6.35;3.10;;;17.20;75.40;;;;;;4936329;29;20034;-71
2023/05/17 13:17:09;;;;;;;7.28;3.53;;;17.00;75.90;;;;;;4935991;29;20031;-71
2023/05/17 13:19:35;;;;;;;6.95;2.67;;;16.70;76.30;;;;;;4937866;29;20031;-72
2023/05/17 13:22:02;;;;;;;5.78;2.95;;;16.60;76.80;;;;;;4936741;29;20059;-72
2023/05/17 13:24:32;;;;;;;5.90;2.83;;;16.80;76.30;;;;;;4936053;29;20099;-71
2023/05/17 13:26:58;;;;;;;5.75;3.42;;;16.70;75.20;;;;;;4936155;29;20023;-72
2023/05/17 13:29:23;;;;;;;4.85;2.63;;;16.60;75.20;;;;;;4936600;29;20481;-71
2023/05/17 13:31:49;;;;;;;7.35;3.33;;;16.50;75.80;;;;;;4936940;29;20051;-71
2023/05/17 13:34:15;;;;;;;9.35;3.20;;;16.40;76.30;;;;;;4936913;29;20066;-71
2023/05/17 13:36:41;;;;;;;7.03;2.83;;;16.50;77.00;;;;;;4923470;29;20036;-71
2023/05/17 13:39:07;;;;;;;8.38;3.00;;;16.50;75.90;;;;;;4918090;29;20316;-71
2023/05/17 13:41:33;;;;;;;6.18;2.42;;;16.40;76.00;;;;;;4918181;29;20044;-72
2023/05/17 13:43:58;;;;;;;5.38;2.90;;;16.50;75.70;;;;;;4916885;29;20031;-72
2023/05/17 13:46:24;;;;;;;6.53;2.20;;;16.50;75.70;;;;;;4916757;29;20024;-71
2023/05/17 13:49:16;;;;;;;6.30;2.55;;;16.40;75.10;;;;;;4918723;29;20392;-71
2023/05/17 13:51:41;;;;;;;6.55;2.90;;;16.70;75.20;;;;;;4915901;29;20087;-72
2023/05/17 13:54:08;;;;;;;7.18;2.90;;;17.20;74.50;;;;;;4918214;29;20036;-72
2023/05/17 13:56:33;;;;;;;7.78;2.80;;;17.20;73.20;;;;;;4917015;29;20032;-71
2023/05/17 13:58:59;;;;;;;6.35;2.97;;;17.30;74.90;;;;;;4918027;29;20046;-71
2023/05/17 14:01:25;;;;;;;6.10;2.80;;;17.00;74.20;;;;;;4918448;29;20035;-71
2023/05/17 14:03:51;;;;;;;5.63;2.38;;;16.70;74.90;;;;;;4916552;29;20032;-71
2023/05/17 14:06:17;;;;;;;7.88;2.83;;;16.50;75.30;;;;;;4926978;29;20035;-71
2023/05/17 14:08:44;;;;;;;7.95;3.10;;;16.30;76.20;;;;;;4935695;29;20075;-71
2023/05/17 14:11:10;;;;;;;6.40;2.45;;;16.20;76.70;;;;;;4936011;29;20480;-73
2023/05/17 14:13:36;;;;;;;4.45;2.47;;;16.10;77.00;;;;;;4936122;29;20032;-72
2023/05/17 14:16:01;;;;;;;8.70;2.88;;;16.10;76.90;;;;;;4939642;29;20118;-72
2023/05/17 14:18:27;;;;;;;5.88;2.83;;;16.10;77.00;;;;;;4936893;29;20458;-72
2023/05/17 14:20:53;;;;;;;7.75;3.10;;;16.30;76.00;;;;;;4934288;29;20502;-71
2023/05/17 14:23:18;;;;;;;6.33;2.57;;;16.40;75.20;;;;;;4928999;29;20433;-72
2023/05/17 14:25:47;;;;;;;7.03;2.60;;;16.30;75.40;;;;;;4939452;29;20264;-73
2023/05/17 14:28:13;;;;;;;7.40;2.88;;;16.20;75.90;;;;;;4942830;29;20048;-71
2023/05/17 14:30:39;;;;;;;8.27;3.03;;;16.30;77.10;;;;;;4947648;29;20031;-72
2023/05/17 14:33:05;;;;;;;6.20;2.55;;;16.40;77.00;;;;;;4950095;29;20067;-72
2023/05/17 14:35:31;;;;;;;8.18;2.42;;;16.20;77.30;;;;;;4946238;29;20503;-72
2023/05/17 14:37:56;;;;;;;7.88;2.67;;;16.10;77.60;;;;;;4940065;29;20561;-72
2023/05/17 14:40:22;;;;;;;9.10;3.33;;;16.00;78.60;;;;;;4937428;29;20031;-72
2023/05/17 14:42:47;;;;;;;5.93;2.50;;;16.10;78.60;;;;;;4935732;29;20032;-72
2023/05/17 14:45:13;;;;;;;4.95;2.60;;;15.90;79.30;;;;;;4936791;29;20023;-73
2023/05/17 14:47:39;;;;;;;6.60;2.88;;;15.90;77.70;;;;;;4936325;29;20044;-72
2023/05/17 14:50:05;;;;;;;8.85;3.30;;;15.80;78.10;;;;;;4936700;29;20086;-72
2023/05/17 14:52:31;;;;;;;6.55;3.28;;;15.80;78.30;;;;;;4935941;29;20108;-73
2023/05/17 14:54:58;;;;;;;8.70;2.80;;;15.70;77.20;;;;;;4936313;29;20032;-71
2023/05/17 14:57:23;;;;;;;9.48;3.28;;;15.70;78.40;;;;;;4936418;29;20048;-73
2023/05/17 14:59:49;;;;;;;6.13;2.70;;;15.80;79.30;;;;;;4935381;29;20035;-73
2023/05/17 15:02:14;;;;;;;7.85;2.75;;;16.00;79.40;;;;;;4934675;29;20071;-73
2023/05/17 15:04:40;;;;;;;8.00;2.47;;;16.20;78.20;;;;;;4934837;29;20023;-73
2023/05/17 15:07:05;;;;;;;7.70;2.90;;;16.20;78.10;;;;;;4934504;29;20085;-72
2023/05/17 15:09:36;;;;;;;7.80;3.50;;;16.30;77.60;;;;;;4935065;29;20027;-73
2023/05/17 15:12:02;;;;;;;7.18;2.55;;;16.20;77.50;;;;;;4936189;29;20393;-72
2023/05/17 15:14:28;;;;;;;6.72;2.78;;;16.20;77.00;;;;;;4935907;29;20074;-72
2023/05/17 15:16:53;;;;;;;8.75;2.85;;;16.20;77.80;;;;;;4934146;29;20047;-72
2023/05/17 15:19:19;;;;;;;5.27;2.47;;;16.30;76.90;;;;;;4936104;29;20111;-73
2023/05/17 15:21:45;;;;;;;6.30;2.57;;;16.40;76.30;;;;;;4935740;29;20267;-72
2023/05/17 15:24:11;;;;;;;7.22;2.60;;;16.50;76.20;;;;;;4935844;29;20259;-73
2023/05/17 15:26:36;;;;;;;10.27;2.97;;;16.70;76.50;;;;;;4934773;29;20026;-72
2023/05/17 15:29:02;;;;;;;6.95;2.65;;;16.80;75.40;;;;;;4934552;29;20035;-72
2023/05/17 15:31:28;;;;;;;9.30;2.63;;;16.80;76.50;;;;;;4934602;29;20127;-73
2023/05/17 15:33:55;;;;;;;6.47;2.92;;;16.70;75.10;;;;;;4936260;29;20042;-76
2023/05/17 15:36:20;;;;;;;5.60;2.65;;;16.50;76.40;;;;;;4934955;29;20028;-75
2023/05/17 15:38:46;;;;;;;5.30;2.28;;;16.30;75.20;;;;;;4935105;29;20086;-76
2023/05/17 15:41:17;;;;;;;5.85;2.88;;;16.20;75.30;;;;;;4935362;29;20397;-76
2023/05/17 15:43:43;;;;;;;7.82;2.40;;;16.00;75.90;;;;;;4935073;29;20032;-76
2023/05/17 15:46:09;;;;;;;7.93;2.63;;;16.10;76.80;;;;;;4935316;29;20390;-75
2023/05/17 15:48:35;;;;;;;4.80;2.38;;;16.20;76.30;;;;;;4939704;29;20058;-75
2023/05/17 15:51:01;;;;;;;7.57;2.78;;;16.40;76.00;;;;;;4935034;29;20020;-71
2023/05/17 15:53:28;;;;;;;6.65;2.25;;;16.60;75.80;;;;;;4935750;29;20031;-71
2023/05/17 15:55:54;;;;;;;4.97;2.30;;;16.80;74.90;;;;;;4936712;29;20386;-71
2023/05/17 15:58:21;;;;;;;7.65;3.05;;;16.80;75.80;;;;;;4938433;29;20063;-74
2023/05/17 16:00:47;;;;;;;6.32;2.50;;;16.70;76.10;;;;;;4938782;29;20051;-72
2023/05/17 16:03:14;;;;;;;4.82;2.55;;;16.70;76.10;;;;;;4937452;29;20493;-70
2023/05/17 16:05:40;;;;;;;6.38;2.80;;;16.70;76.10;;;;;;4933547;29;20556;-70
2023/05/17 16:08:07;;;;;;;;;;;16.50;76.60;;;;;;4920171;29;20493;-71
2023/05/17 16:10:35;;;;;;;8.48;3.42;;;16.30;76.60;;;;;;4918782;29;19961;-70
2023/05/17 16:13:02;;;;;;;7.63;3.55;;;16.10;77.50;;;;;;4918791;29;20481;-69
2023/05/17 16:15:28;;;;;;;9.25;2.80;;;16.00;77.10;;;;;;4918369;29;20040;-69
2023/05/17 16:17:54;;;;;;;8.90;2.55;;;16.00;77.90;;;;;;4918361;29;20092;-71
2023/05/17 16:20:22;;;;;;;10.27;2.95;;;15.90;78.20;;;;;;4918727;29;20060;-70
2023/05/17 16:22:49;;;;;;;5.45;2.95;;;15.90;77.40;;;;;;4949497;23;20046;-72
2023/05/17 16:25:19;;;;;;;6.55;2.40;;;15.80;78.70;;;;;;4936696;29;20027;-71
2023/05/17 16:27:46;;;;;;;6.25;2.47;;;15.70;78.10;;;;;;4931199;29;20593;-72
2023/05/17 16:30:12;;;;;;;5.88;2.38;;;15.70;78.40;;;;;;4937504;29;20734;-71
2023/05/17 16:32:38;;;;;;;7.47;2.50;;;15.60;78.40;;;;;;4937417;29;20481;-72
2023/05/17 16:35:04;;;;;;;4.22;2.40;;;15.60;78.00;;;;;;4935766;29;20068;-71
2023/05/17 16:37:30;;;;;;;8.35;2.60;;;15.60;78.20;;;;;;4919353;29;20446;-72
2023/05/17 16:39:56;;;;;;;8.73;2.93;;;15.60;78.40;;;;;;4918116;29;20035;-72
2023/05/17 16:42:22;;;;;;;8.93;2.80;;;15.60;78.90;;;;;;4916893;29;20028;-71
2023/05/17 16:44:47;;;;;;;5.72;2.38;;;15.60;79.20;;;;;;4917093;29;20084;-72
2023/05/17 16:47:13;;;;;;;5.40;3.20;;;15.60;79.40;;;;;;4919445;29;20028;-72
2023/05/17 16:49:39;;;;;;;5.40;2.37;;;15.60;79.50;;;;;;4919312;29;20104;-71
2023/05/17 16:52:05;;;;;;;5.10;2.63;;;15.70;78.70;;;;;;4918975;29;20311;-73
2023/05/17 16:54:32;;;;;;;6.70;2.90;;;15.60;79.10;;;;;;4918027;29;20430;-71